createdAt,value
2022-08-08T00:00:52.415Z,1.80
2022-08-08T00:02:49.053Z,1.98
2022-08-08T00:06:00.797Z,1.80
2022-08-08T00:08:20.415Z,2.10
2022-08-08T00:10:58.017Z,1.92
2022-08-08T00:14:15.151Z,1.50
2022-08-08T00:16:27.817Z,1.77
2022-08-08T00:19:00.720Z,2.03
2022-08-08T00:21:43.660Z,1.70
2022-08-08T00:24:19.219Z,1.85
2022-08-08T00:26:58.359Z,1.70
2022-08-08T00:29:45.070Z,1.83
2022-08-08T00:32:33.087Z,1.98
2022-08-08T00:35:37.604Z,1.95
2022-08-08T00:38:31.095Z,1.90
2022-08-08T00:42:08.287Z,1.92
2022-08-08T00:45:00.825Z,2.40
2022-08-08T00:48:06.600Z,1.93
2022-08-08T00:51:38.258Z,2.05
2022-08-08T00:54:43.673Z,2.10
2022-08-08T00:57:48.607Z,2.10
2022-08-08T01:00:28.432Z,2.20
2022-08-08T01:03:59.516Z,2.10
2022-08-08T01:07:01.676Z,2.40
2022-08-08T01:10:13.095Z,2.50
2022-08-08T01:13:44.055Z,2.60
2022-08-08T01:16:46.489Z,1.80
2022-08-08T01:20:22.449Z,2.30
2022-08-08T01:24:05.581Z,2.17
2022-08-08T01:26:49.162Z,2.42
2022-08-08T01:29:59.384Z,2.25
2022-08-08T01:33:27.870Z,2.30
2022-08-08T01:36:42.283Z,2.20
2022-08-08T01:39:28.437Z,2.30
2022-08-08T01:42:15.782Z,2.20
2022-08-08T01:45:03.560Z,2.50
2022-08-08T01:48:15.681Z,2.20
2022-08-08T01:51:01.579Z,2.40
2022-08-08T01:55:15.196Z,2.70
2022-08-08T01:56:46.924Z,2.50
2022-08-08T02:00:01.077Z,2.30
2022-08-08T02:02:45.247Z,2.40
2022-08-08T02:05:33.841Z,2.30
2022-08-08T02:08:33.991Z,2.72
2022-08-08T02:11:23.487Z,2.90
2022-08-08T02:13:59.445Z,3.10
2022-08-08T02:16:53.712Z,2.72
2022-08-08T02:20:07.063Z,2.70
2022-08-08T02:22:34.467Z,2.65
2022-08-08T02:25:22.700Z,2.80
2022-08-08T02:28:02.803Z,2.20
2022-08-08T02:30:49.714Z,2.70
2022-08-08T02:34:07.170Z,2.60
2022-08-08T02:36:41.229Z,3.10
2022-08-08T02:39:42.329Z,2.47
2022-08-08T02:43:07.458Z,2.50
2022-08-08T02:46:21.743Z,2.42
2022-08-08T02:49:47.484Z,3.00
2022-08-08T02:52:50.732Z,2.58
2022-08-08T02:55:59.822Z,3.00
2022-08-08T02:59:25.944Z,2.60
2022-08-08T03:02:40.620Z,3.00
2022-08-08T03:05:55.678Z,2.53
2022-08-08T03:09:09.792Z,2.80
2022-08-08T03:12:36.223Z,3.00
2022-08-08T03:16:02.467Z,3.00
2022-08-08T03:18:31.297Z,3.00
2022-08-08T03:21:09.712Z,2.92
2022-08-08T03:23:57.268Z,2.80
2022-08-08T03:26:42.723Z,3.30
2022-08-08T03:29:21.012Z,3.03
2022-08-08T03:32:13.199Z,2.90
2022-08-08T03:34:44.724Z,3.13
2022-08-08T03:37:58.984Z,3.28
2022-08-08T03:40:10.920Z,3.60
2022-08-08T03:43:16.473Z,4.10
2022-08-08T03:46:05.194Z,3.58
2022-08-08T03:49:09.298Z,3.60
2022-08-08T03:51:50.640Z,3.60
2022-08-08T03:54:40.618Z,3.60
2022-08-08T03:58:31.500Z,3.30
2022-08-08T04:00:11.026Z,3.30
2022-08-08T04:02:47.512Z,3.40
2022-08-08T04:05:22.764Z,3.50
2022-08-08T04:07:59.211Z,3.50
2022-08-08T04:10:32.796Z,3.40
2022-08-08T04:13:18.095Z,3.75
2022-08-08T04:15:55.184Z,4.00
2022-08-08T04:18:44.876Z,4.00
2022-08-08T04:21:23.256Z,4.05
2022-08-08T04:24:05.291Z,4.15
2022-08-08T04:26:58.032Z,4.32
2022-08-08T04:29:33.384Z,4.63
2022-08-08T04:32:10.473Z,4.15
2022-08-08T04:34:49.462Z,4.10
2022-08-08T04:37:32.065Z,4.50
2022-08-08T04:40:12.122Z,4.30
2022-08-08T04:43:00.794Z,4.05
2022-08-08T04:45:45.240Z,3.80
2022-08-08T04:48:15.788Z,3.65
2022-08-08T04:50:46.343Z,3.58
2022-08-08T04:54:27.578Z,2.97
2022-08-08T04:56:10.607Z,3.47
2022-08-08T04:58:39.002Z,3.25
2022-08-08T05:01:11.132Z,3.10
2022-08-08T05:04:08.454Z,3.10
2022-08-08T05:06:39.082Z,3.50
2022-08-08T05:09:09.161Z,3.20
2022-08-08T05:11:41.916Z,3.70
2022-08-08T05:14:15.758Z,3.40
2022-08-08T05:17:01.094Z,3.85
2022-08-08T05:20:10.795Z,3.17
2022-08-08T05:22:37.084Z,3.40
2022-08-08T05:25:06.532Z,3.50
2022-08-08T05:27:41.609Z,3.10
2022-08-08T05:30:12.037Z,3.22
2022-08-08T05:32:47.983Z,3.40
2022-08-08T05:35:24.073Z,4.35
2022-08-08T05:38:30.248Z,4.20
2022-08-08T05:40:59.534Z,3.70
2022-08-08T05:44:02.205Z,4.18
2022-08-08T05:46:23.547Z,3.60
2022-08-08T05:48:55.501Z,3.70
2022-08-08T05:51:48.078Z,3.20
2022-08-08T05:54:27.477Z,3.30
2022-08-08T05:57:12.373Z,3.85
2022-08-08T05:59:59.261Z,3.53
2022-08-08T06:03:13.376Z,3.30
2022-08-08T06:05:59.206Z,3.55
2022-08-08T06:08:34.904Z,3.70
2022-08-08T06:11:16.660Z,3.57
2022-08-08T06:13:49.430Z,4.13
2022-08-08T06:16:27.591Z,3.72
2022-08-08T06:19:24.084Z,3.53
2022-08-08T06:21:57.285Z,4.15
2022-08-08T06:24:37.055Z,3.83
2022-08-08T06:27:11.821Z,3.60
2022-08-08T06:30:02.384Z,4.28
2022-08-08T06:33:01.256Z,3.80
2022-08-08T06:36:08.914Z,4.50
2022-08-08T06:38:29.187Z,4.43
2022-08-08T06:41:06.578Z,4.10
2022-08-08T06:43:38.134Z,4.40
2022-08-08T06:46:16.274Z,4.10
2022-08-08T06:48:47.679Z,4.22
2022-08-08T06:51:17.855Z,3.90
2022-08-08T06:53:51.189Z,4.30
2022-08-08T06:56:32.413Z,4.30
2022-08-08T06:59:01.596Z,4.60
2022-08-08T07:02:27.378Z,4.03
2022-08-08T07:04:49.802Z,4.18
2022-08-08T07:07:29.738Z,4.00
2022-08-08T07:10:08.015Z,4.90
2022-08-08T07:12:48.052Z,4.60
2022-08-08T07:16:05.104Z,4.60
2022-08-08T07:18:44.145Z,4.63
2022-08-08T07:21:20.519Z,4.25
2022-08-08T07:24:03.808Z,4.50
2022-08-08T07:26:50.899Z,4.90
2022-08-08T07:30:00.955Z,4.20
2022-08-08T07:32:15.939Z,4.88
2022-08-08T07:35:00.332Z,4.20
2022-08-08T07:37:49.645Z,4.68
2022-08-08T07:40:45.344Z,4.32
2022-08-08T07:43:17.583Z,4.07
2022-08-08T07:46:23.029Z,4.60
2022-08-08T07:48:52.731Z,3.70
2022-08-08T07:51:23.829Z,4.00
2022-08-08T07:54:26.373Z,3.65
2022-08-08T07:57:09.020Z,3.50
2022-08-08T07:59:51.439Z,4.28
2022-08-08T08:02:36.488Z,4.00
2022-08-08T08:05:21.344Z,4.40
2022-08-08T08:08:07.857Z,3.70
2022-08-08T08:10:39.430Z,4.20
2022-08-08T08:13:25.556Z,3.95
2022-08-08T08:16:19.322Z,3.60
2022-08-08T08:18:56.701Z,3.67
2022-08-08T08:21:44.652Z,3.80
2022-08-08T08:24:46.393Z,3.80
2022-08-08T08:27:19.919Z,4.20
2022-08-08T08:29:51.090Z,4.00
2022-08-08T08:32:35.667Z,3.80
2022-08-08T08:35:10.842Z,3.60
2022-08-08T08:38:13.242Z,3.70
2022-08-08T08:40:34.711Z,3.60
2022-08-08T08:43:06.902Z,3.65
2022-08-08T08:45:40.740Z,3.40
2022-08-08T08:48:16.377Z,3.80
2022-08-08T08:50:52.879Z,3.40
2022-08-08T08:53:54.263Z,3.77
2022-08-08T08:56:23.740Z,3.50
2022-08-08T08:58:58.316Z,3.60
2022-08-08T09:01:34.743Z,3.20
2022-08-08T09:04:30.879Z,3.25
2022-08-08T09:07:08.768Z,3.40
2022-08-08T09:09:47.745Z,3.67
2022-08-08T09:12:24.592Z,3.30
2022-08-08T09:14:58.681Z,3.50
2022-08-08T09:17:42.038Z,3.70
2022-08-08T09:21:56.667Z,3.00
2022-08-08T09:23:25.442Z,3.23
2022-08-08T09:26:03.138Z,3.40
2022-08-08T09:28:41.714Z,3.20
2022-08-08T09:31:17.939Z,3.08
2022-08-08T09:34:18.744Z,2.90
2022-08-08T09:37:10.209Z,2.90
2022-08-08T09:39:43.074Z,3.15
2022-08-08T09:42:22.172Z,2.85
2022-08-08T09:45:03.830Z,2.65
2022-08-08T09:48:03.899Z,3.15
2022-08-08T09:50:28.205Z,3.30
2022-08-08T09:53:05.541Z,2.60
2022-08-08T09:56:05.042Z,3.10
2022-08-08T09:58:44.562Z,2.30
2022-08-08T10:02:00.023Z,2.70
2022-08-08T10:04:35.635Z,2.77
2022-08-08T10:07:07.373Z,2.80
2022-08-08T10:10:00.175Z,2.70
2022-08-08T10:12:38.026Z,2.80
2022-08-08T10:15:18.282Z,2.80
2022-08-08T10:18:05.557Z,3.65
2022-08-08T10:20:50.992Z,2.80
2022-08-08T10:23:42.975Z,2.40
2022-08-08T10:26:29.966Z,2.50
2022-08-08T10:29:04.558Z,2.60
2022-08-08T10:31:52.232Z,2.90
2022-08-08T10:34:24.841Z,2.30
2022-08-08T10:36:59.761Z,2.70
2022-08-08T10:39:31.357Z,2.20
2022-08-08T10:42:16.772Z,2.35
2022-08-08T10:44:46.087Z,2.50
2022-08-08T10:47:21.165Z,2.63
2022-08-08T10:50:01.580Z,2.20
2022-08-08T10:52:33.404Z,2.40
2022-08-08T10:55:05.154Z,2.20
2022-08-08T10:57:45.296Z,2.45
2022-08-08T11:00:25.767Z,2.20
2022-08-08T11:02:54.655Z,2.30
2022-08-08T11:05:23.549Z,2.40
2022-08-08T11:08:30.639Z,2.65
2022-08-08T11:10:41.804Z,2.60
2022-08-08T11:13:28.950Z,2.77
2022-08-08T11:16:07.387Z,2.20
2022-08-08T11:18:40.130Z,2.03
2022-08-08T11:21:10.198Z,2.20
2022-08-08T11:23:41.894Z,2.38
2022-08-08T11:26:18.637Z,2.20
2022-08-08T11:28:50.469Z,2.33
2022-08-08T11:31:20.770Z,5.25
2022-08-08T11:34:01.887Z,2.72
2022-08-08T11:36:33.099Z,2.60
2022-08-08T11:39:05.515Z,2.42
2022-08-08T11:41:40.081Z,2.40
2022-08-08T11:44:14.838Z,8.73
2022-08-08T11:46:44.103Z,5.20
2022-08-08T11:49:14.276Z,2.78
2022-08-08T11:51:50.464Z,2.08
2022-08-08T11:54:33.861Z,2.00
2022-08-08T11:57:20.088Z,1.70
2022-08-08T12:00:02.727Z,1.90
2022-08-08T12:02:51.765Z,2.40
2022-08-08T12:05:22.848Z,1.83
2022-08-08T12:07:53.387Z,2.10
2022-08-08T12:10:23.484Z,2.05
2022-08-08T12:13:01.352Z,1.90
2022-08-08T12:15:42.832Z,2.20
2022-08-08T12:18:21.667Z,2.30
2022-08-08T12:20:54.757Z,2.10
2022-08-08T12:23:44.006Z,1.80
2022-08-08T12:26:28.440Z,2.20
2022-08-08T12:29:36.166Z,2.08
2022-08-08T12:32:13.395Z,2.60
2022-08-08T12:34:48.723Z,2.00
2022-08-08T12:37:21.834Z,2.03
2022-08-08T12:40:01.655Z,2.55
2022-08-08T12:42:33.979Z,2.13
2022-08-08T12:45:11.559Z,1.65
2022-08-08T12:48:09.795Z,2.10
2022-08-08T12:50:46.687Z,1.90
2022-08-08T12:53:35.199Z,1.88
2022-08-08T12:56:18.771Z,2.10
2022-08-08T12:58:50.766Z,1.83
2022-08-08T13:01:24.335Z,2.10
2022-08-08T13:04:18.997Z,2.30
2022-08-08T13:07:01.313Z,2.20
2022-08-08T13:10:00.499Z,2.13
2022-08-08T13:12:30.057Z,1.90
2022-08-08T13:15:01.071Z,2.40
2022-08-08T13:18:08.406Z,4.03
2022-08-08T13:20:23.772Z,2.50
2022-08-08T13:23:36.925Z,2.00
2022-08-08T13:25:50.466Z,2.22
2022-08-08T13:28:32.177Z,2.33
2022-08-08T13:31:04.149Z,2.38
2022-08-08T13:33:42.414Z,2.45
2022-08-08T13:36:13.579Z,1.90
2022-08-08T13:38:42.340Z,2.03
2022-08-08T13:41:16.065Z,2.03
2022-08-08T13:43:46.936Z,1.80
2022-08-08T13:46:26.824Z,2.00
2022-08-08T13:49:11.390Z,1.90
2022-08-08T13:51:56.091Z,2.30
2022-08-08T13:54:31.251Z,2.20
2022-08-08T13:57:08.629Z,2.20
2022-08-08T13:59:40.690Z,2.00
2022-08-08T14:02:20.388Z,2.08
2022-08-08T14:05:05.151Z,2.00
2022-08-08T14:07:52.416Z,2.00
2022-08-08T14:10:33.240Z,2.10
2022-08-08T14:13:21.106Z,1.80
2022-08-08T14:16:03.392Z,1.70
2022-08-08T14:18:35.602Z,1.90
2022-08-08T14:21:08.246Z,2.08
2022-08-08T14:24:06.735Z,1.90
2022-08-08T14:26:38.294Z,2.25
2022-08-08T14:29:13.150Z,2.33
2022-08-08T14:32:09.429Z,2.58
2022-08-08T14:34:42.048Z,2.20
2022-08-08T14:37:12.685Z,2.10
2022-08-08T14:39:50.429Z,2.65
2022-08-08T14:42:34.981Z,1.80
2022-08-08T14:45:10.121Z,2.20
2022-08-08T14:47:51.255Z,1.95
2022-08-08T14:50:39.338Z,2.28
2022-08-08T14:53:13.696Z,2.00
2022-08-08T14:55:45.089Z,2.30
2022-08-08T14:58:16.840Z,2.33
2022-08-08T15:00:50.016Z,3.00
2022-08-08T15:03:18.996Z,2.38
2022-08-08T15:05:53.462Z,2.30
2022-08-08T15:08:33.363Z,1.70
2022-08-08T15:11:06.736Z,2.20
2022-08-08T15:13:40.682Z,1.88
2022-08-08T15:16:23.426Z,2.00
2022-08-08T15:18:52.294Z,2.13
2022-08-08T15:21:21.034Z,1.70
2022-08-08T15:23:51.439Z,2.00
2022-08-08T15:26:25.867Z,2.10
2022-08-08T15:28:57.592Z,1.75
2022-08-08T15:32:02.916Z,1.92
2022-08-08T15:34:29.828Z,1.80
2022-08-08T15:37:03.022Z,2.10
2022-08-08T15:39:37.445Z,2.30
2022-08-08T15:42:10.389Z,2.00
2022-08-08T15:44:42.598Z,2.23
2022-08-08T15:47:15.628Z,1.90
2022-08-08T15:49:48.506Z,1.63
2022-08-08T15:52:22.534Z,1.88
2022-08-08T15:54:54.014Z,1.80
2022-08-08T15:57:24.887Z,2.10
2022-08-08T16:00:25.391Z,1.95
2022-08-08T16:02:50.310Z,2.10
2022-08-08T16:05:21.535Z,1.90
2022-08-08T16:07:54.178Z,4.20
2022-08-08T16:13:15.607Z,2.10
2022-08-08T16:13:32.133Z,1.83
2022-08-08T16:16:03.352Z,2.10
2022-08-08T16:18:56.937Z,2.00
2022-08-08T16:21:29.189Z,2.00
2022-08-08T16:23:58.412Z,1.70
2022-08-08T16:26:34.315Z,2.00
2022-08-08T16:29:09.098Z,2.00
2022-08-08T16:31:44.763Z,1.80
2022-08-08T16:34:19.524Z,1.60
2022-08-08T16:36:50.582Z,1.50
2022-08-08T16:39:49.118Z,1.70
2022-08-08T16:42:17.646Z,1.73
2022-08-08T16:44:54.754Z,1.70
2022-08-08T16:47:40.548Z,2.03
2022-08-08T16:50:14.146Z,2.85
2022-08-08T16:55:06.801Z,2.03
2022-08-08T16:55:54.269Z,2.00
2022-08-08T16:58:22.244Z,5.13
2022-08-08T17:00:57.891Z,3.40
2022-08-08T17:03:59.055Z,2.65
2022-08-08T17:06:35.418Z,2.30
2022-08-08T17:09:03.276Z,1.90
2022-08-08T17:11:38.939Z,2.10
2022-08-08T17:14:18.638Z,2.10
2022-08-08T17:16:57.452Z,2.20
2022-08-08T17:19:29.060Z,1.60
2022-08-08T17:22:01.227Z,1.60
2022-08-08T17:24:31.945Z,1.90
2022-08-08T17:27:01.931Z,2.10
2022-08-08T17:29:34.018Z,2.13
2022-08-08T17:32:07.855Z,1.83
2022-08-08T17:35:52.239Z,1.80
2022-08-08T17:37:27.493Z,1.80
2022-08-08T17:40:11.356Z,1.90
2022-08-08T17:42:47.086Z,1.88
2022-08-08T17:45:22.669Z,2.20
2022-08-08T17:47:55.229Z,2.03
2022-08-08T17:50:24.917Z,1.75
2022-08-08T17:52:57.388Z,2.15
2022-08-08T17:56:05.013Z,1.80
2022-08-08T17:58:14.484Z,1.70
2022-08-08T18:00:47.480Z,1.55
2022-08-08T18:03:24.039Z,1.95
2022-08-08T18:05:52.537Z,1.60
2022-08-08T18:08:38.168Z,2.30
2022-08-08T18:11:14.556Z,1.60
2022-08-08T18:13:45.326Z,2.00
2022-08-08T18:16:16.891Z,2.00
2022-08-08T18:18:52.633Z,1.90
2022-08-08T18:21:34.779Z,1.77
2022-08-08T18:24:19.318Z,1.55
2022-08-08T18:26:54.509Z,1.60
2022-08-08T18:29:30.223Z,1.90
2022-08-08T18:32:04.012Z,1.98
2022-08-08T18:34:35.315Z,1.92
2022-08-08T18:37:06.490Z,2.60
2022-08-08T18:39:37.624Z,2.30
2022-08-08T18:42:13.830Z,1.85
2022-08-08T18:44:52.714Z,2.25
2022-08-08T18:47:25.182Z,2.83
2022-08-08T18:49:58.900Z,2.15
2022-08-08T18:52:29.917Z,3.00
2022-08-08T18:55:09.462Z,2.30
2022-08-08T18:57:44.953Z,1.90
2022-08-08T19:00:20.458Z,2.53
2022-08-08T19:02:55.362Z,1.90
2022-08-08T19:05:30.656Z,2.40
2022-08-08T19:08:10.109Z,2.60
2022-08-08T19:10:52.385Z,2.50
2022-08-08T19:13:24.224Z,2.20
2022-08-08T19:15:55.923Z,2.45
2022-08-08T19:18:31.877Z,2.75
2022-08-08T19:21:29.196Z,2.42
2022-08-08T19:23:59.645Z,1.60
2022-08-08T19:26:29.911Z,2.55
2022-08-08T19:28:59.929Z,2.10
2022-08-08T19:31:31.761Z,2.00
2022-08-08T19:34:29.687Z,1.80
2022-08-08T19:36:58.435Z,1.90
2022-08-08T19:39:35.557Z,3.00
2022-08-08T19:42:06.869Z,2.20
2022-08-08T19:44:45.889Z,2.00
2022-08-08T19:47:15.596Z,2.67
2022-08-08T19:49:59.614Z,3.00
2022-08-08T19:52:35.493Z,2.25
2022-08-08T19:55:09.492Z,2.08
2022-08-08T19:57:41.145Z,2.20
2022-08-08T20:00:30.056Z,1.60
2022-08-08T20:03:01.110Z,1.90
2022-08-08T20:06:14.893Z,2.10
2022-08-08T20:08:30.698Z,2.10
2022-08-08T20:11:05.922Z,2.27
2022-08-08T20:14:32.685Z,2.20
2022-08-08T20:16:29.589Z,1.95
2022-08-08T20:18:58.176Z,1.60
2022-08-08T20:21:26.618Z,2.00
2022-08-08T20:24:01.803Z,2.00
2022-08-08T20:26:33.929Z,1.95
2022-08-08T20:29:03.261Z,1.80
2022-08-08T20:32:07.516Z,1.85
2022-08-08T20:34:29.235Z,2.00
2022-08-08T20:37:00.848Z,2.08
2022-08-08T20:39:38.907Z,1.60
2022-08-08T20:42:09.915Z,1.40
2022-08-08T20:44:38.301Z,1.80
2022-08-08T20:47:22.675Z,2.03
2022-08-08T20:49:55.908Z,2.10
2022-08-08T20:52:27.791Z,1.60
2022-08-08T20:54:58.117Z,1.77
2022-08-08T20:57:27.718Z,2.00
2022-08-08T20:59:56.462Z,1.70
2022-08-08T21:02:25.738Z,1.58
2022-08-08T21:04:57.323Z,1.90
2022-08-08T21:07:47.164Z,1.60
2022-08-08T21:10:17.960Z,1.58
2022-08-08T21:12:52.986Z,1.75
2022-08-08T21:16:04.045Z,2.20
2022-08-08T21:18:12.253Z,1.98
2022-08-08T21:20:42.670Z,1.80
2022-08-08T21:23:17.998Z,1.80
2022-08-08T21:25:53.271Z,1.77
2022-08-08T21:28:35.533Z,1.70
2022-08-08T21:31:05.822Z,1.50
2022-08-08T21:33:50.712Z,1.33
2022-08-08T21:36:21.126Z,1.52
2022-08-08T21:38:57.444Z,1.60
2022-08-08T21:41:28.888Z,1.60
2022-08-08T21:44:11.009Z,1.50
2022-08-08T21:48:04.262Z,1.50
2022-08-08T21:49:30.559Z,1.30
2022-08-08T21:54:36.228Z,1.40
2022-08-08T21:55:02.463Z,1.40
2022-08-08T21:57:42.782Z,1.70
2022-08-08T22:00:26.262Z,1.50
2022-08-08T22:02:54.952Z,1.50
2022-08-08T22:05:23.344Z,1.50
2022-08-08T22:07:51.818Z,1.40
2022-08-08T22:10:31.991Z,1.37
2022-08-08T22:13:17.789Z,1.63
2022-08-08T22:15:59.487Z,1.30
2022-08-08T22:18:30.568Z,1.30
2022-08-08T22:21:01.622Z,1.60
2022-08-08T22:23:50.794Z,1.33
2022-08-08T22:26:29.416Z,1.40
2022-08-08T22:29:13.963Z,1.40
2022-08-08T22:32:01.374Z,1.30
2022-08-08T22:34:33.046Z,1.35
2022-08-08T22:37:14.763Z,1.10
2022-08-08T22:40:01.194Z,1.38
2022-08-08T22:42:31.921Z,1.40
2022-08-08T22:45:05.362Z,1.50
2022-08-08T22:47:46.840Z,1.70
2022-08-08T22:50:27.009Z,1.70
2022-08-08T22:53:00.286Z,1.50
2022-08-08T22:55:59.041Z,1.20
2022-08-08T22:58:31.151Z,1.30
2022-08-08T23:02:00.805Z,1.50
2022-08-08T23:03:53.190Z,1.10
2022-08-08T23:06:24.095Z,1.50
2022-08-08T23:08:55.636Z,1.30
2022-08-08T23:11:30.791Z,1.60
2022-08-08T23:14:17.078Z,1.38
2022-08-08T23:16:54.744Z,1.50
2022-08-08T23:19:32.301Z,1.50
2022-08-08T23:22:01.675Z,1.40
2022-08-08T23:24:36.235Z,1.30
2022-08-08T23:27:06.167Z,1.50
2022-08-08T23:29:34.781Z,1.23
2022-08-08T23:32:05.388Z,1.25
2022-08-08T23:34:34.255Z,1.50
2022-08-08T23:37:03.375Z,1.60
2022-08-08T23:39:42.179Z,1.33
2022-08-08T23:42:17.875Z,1.50
2022-08-08T23:44:50.008Z,1.30
2022-08-08T23:49:04.765Z,1.50
2022-08-08T23:50:30.294Z,1.60
2022-08-08T23:53:05.124Z,1.45
2022-08-08T23:55:38.278Z,1.60
2022-08-08T23:58:37.327Z,1.50
